Route Details

Aircraft Information
Group: North America Fleet
Types: B738, B752, B762, B763
Route Data
Distance: 418nm
Duration: 1h 39m
Origin METAR: KCLT 072352Z 19006KT 10SM FEW200 BKN250 14/01 A3027 RMK SLP252 T01390011 10189 20133 55002 $
Dest. METAR: KABE 072351Z AUTO 20007KT 10SM CLR 04/M03 A3016 RMK AO2 SLP218 T00391033 10061 20039 56010
Freight Data
(for Feb 8, 2023)
Load Factor:
59%
Manifested Cargo: 67,965lbs
Financial History
Total Freight: 183,919lbs
Average Load: 0lbs/flt
Fuel Used: 33,864lbs
Avg. Fuel Used: 0lbs/flt
Fuel Expense: $10,588
Avg. Fuel Expense: $0
Avg. Fuel Cost: $0/lbs
Total Gross Income: $403,011
Pilot Pay: $795
Total Expenses: $56,683
Total Revenue: $333,971
Average Revenue: $0

Capitol Logistics 490




KCLT
Charlotte/Douglas International Airport
Charlotte, North Carolina
KABE
Lehigh Valley International Airport
Allentown, Pennsylvania